Terminal Aerodrome Forecast
Issued by NWS

Home | Current Version | Previous Version | Text Only | Print | Product List | Glossary On
Versions: 1 2 3 4 5 6 7 8 9 10 11 12 13 14 15 16 17 18 19
000
FTUS42 KRAH 302129 AAA
TAFRWI
TAF AMD
KRWI 302129Z 3021/3118 12008G15KT P6SM FEW060 OVC090
     FM310500 15008KT P6SM VCSH BKN015 OVC040
     FM310900 17011G20KT 3SM SHRA BR BKN012 OVC060
      TEMPO 3110/3113 2SM +TSRA BR SCT008 OVC025CB
     FM311700 21013G23KT P6SM VCSH SCT030 BKN050=

USA.gov is the U.S. government's official web portal to all federal, state and local government web resources and services.